createdAt,value
2023-01-29T00:03:51.972Z,95.30
2023-01-29T00:08:53.775Z,95.20
2023-01-29T00:13:55.957Z,95.20
2023-01-29T00:18:57.745Z,95.20
2023-01-29T00:23:59.924Z,95.30
2023-01-29T00:29:02.651Z,95.10
2023-01-29T00:34:04.375Z,95.00
2023-01-29T00:39:10.631Z,95.00
2023-01-29T00:44:31.567Z,95.00
2023-01-29T00:49:33.245Z,95.10
2023-01-29T00:54:35.634Z,95.10
2023-01-29T00:59:37.716Z,95.00
2023-01-29T01:04:39.405Z,94.90
2023-01-29T01:10:00.030Z,94.90
2023-01-29T01:15:01.722Z,95.10
2023-01-29T01:20:04.274Z,95.30
2023-01-29T01:25:06.297Z,95.40
2023-01-29T01:30:11.330Z,95.20
2023-01-29T01:35:14.845Z,95.30
2023-01-29T01:40:19.837Z,95.40
2023-01-29T01:45:31.144Z,95.50
2023-01-29T01:50:58.712Z,95.50
2023-01-29T01:56:05.477Z,95.40
2023-01-29T02:01:09.176Z,95.40
2023-01-29T02:06:29.920Z,95.60
2023-01-29T02:11:31.796Z,95.80
2023-01-29T02:16:35.944Z,95.70
2023-01-29T02:22:02.478Z,95.70
2023-01-29T02:27:40.516Z,95.70
2023-01-29T02:32:54.382Z,95.90
2023-01-29T02:38:10.731Z,96.10
2023-01-29T02:43:45.604Z,96.30
2023-01-29T02:49:00.145Z,96.40
2023-01-29T02:54:08.591Z,96.90
2023-01-29T02:59:17.258Z,97.00
2023-01-29T03:04:25.456Z,97.00
2023-01-29T03:09:34.408Z,97.00
2023-01-29T03:14:58.768Z,97.50
2023-01-29T03:20:01.407Z,97.80
2023-01-29T03:25:23.550Z,97.40
2023-01-29T03:30:46.424Z,97.30
2023-01-29T03:36:00.767Z,97.00
2023-01-29T03:41:05.780Z,97.10
2023-01-29T03:46:18.940Z,97.20
2023-01-29T03:51:35.242Z,97.00
2023-01-29T03:57:22.372Z,97.70
2023-01-29T04:02:30.552Z,97.60
2023-01-29T04:07:33.517Z,97.80
2023-01-29T04:12:45.615Z,98.00
2023-01-29T04:17:52.692Z,97.70
2023-01-29T04:22:54.420Z,97.40
2023-01-29T04:28:10.521Z,97.20
2023-01-29T04:33:18.707Z,97.30
2023-01-29T04:38:43.339Z,97.50
2023-01-29T04:43:58.233Z,97.60
2023-01-29T04:49:25.659Z,98.00
2023-01-29T04:55:07.995Z,98.10
2023-01-29T05:00:13.440Z,97.70
2023-01-29T05:05:17.905Z,97.60
2023-01-29T05:10:22.684Z,97.60
2023-01-29T05:15:38.261Z,97.80
2023-01-29T05:20:43.177Z,97.90
2023-01-29T05:25:46.412Z,98.00
2023-01-29T05:30:50.887Z,97.90
2023-01-29T05:35:52.712Z,97.70
2023-01-29T05:40:54.808Z,97.70
2023-01-29T05:45:58.983Z,97.60
2023-01-29T05:51:05.217Z,97.60
2023-01-29T05:56:07.167Z,97.70
2023-01-29T06:01:17.370Z,97.80
2023-01-29T06:06:19.052Z,98.00
2023-01-29T06:11:21.606Z,97.60
2023-01-29T06:16:23.298Z,98.20
2023-01-29T06:21:25.056Z,99.10
2023-01-29T06:26:26.916Z,98.90
2023-01-29T06:31:38.439Z,98.30
2023-01-29T06:36:41.791Z,99.10
2023-01-29T06:41:45.305Z,99.70
2023-01-29T06:46:46.964Z,99.60
2023-01-29T06:51:48.619Z,99.20
2023-01-29T06:56:51.446Z,98.60
2023-01-29T07:01:53.122Z,98.00
2023-01-29T07:06:54.802Z,98.20
2023-01-29T07:11:56.473Z,98.50
2023-01-29T07:16:58.113Z,98.30
2023-01-29T07:22:02.406Z,98.20
2023-01-29T07:27:04.105Z,98.30
2023-01-29T07:32:05.867Z,98.50
2023-01-29T07:37:07.848Z,98.40
2023-01-29T07:42:09.514Z,98.00
2023-01-29T07:47:12.084Z,97.40
2023-01-29T07:52:13.742Z,98.00
2023-01-29T07:57:15.401Z,97.90
2023-01-29T08:02:17.258Z,97.90
2023-01-29T08:07:18.949Z,97.70
2023-01-29T08:12:20.593Z,97.30
2023-01-29T08:17:22.246Z,97.50
2023-01-29T08:22:23.963Z,97.40
2023-01-29T08:27:25.666Z,96.70
2023-01-29T08:32:27.382Z,96.50
2023-01-29T08:37:29.046Z,96.10
2023-01-29T08:42:30.698Z,96.10
2023-01-29T08:47:32.427Z,95.60
2023-01-29T08:52:34.083Z,95.20
2023-01-29T08:57:35.881Z,94.70
2023-01-29T09:02:38.254Z,94.00
2023-01-29T09:07:39.964Z,93.90
2023-01-29T09:12:41.606Z,94.20
2023-01-29T09:17:43.381Z,94.40
2023-01-29T09:22:45.634Z,94.50
2023-01-29T09:27:47.356Z,94.50
2023-01-29T09:32:53.529Z,94.20
2023-01-29T09:37:55.774Z,93.70
2023-01-29T09:43:09.397Z,93.10
2023-01-29T09:48:12.835Z,93.00
2023-01-29T09:53:23.167Z,92.60
2023-01-29T09:58:37.142Z,92.30
2023-01-29T10:03:54.195Z,92.50
2023-01-29T10:09:39.400Z,92.30
2023-01-29T10:15:19.738Z,91.30
2023-01-29T10:20:52.999Z,84.30
2023-01-29T10:25:56.189Z,78.00
2023-01-29T10:31:23.450Z,73.80
2023-01-29T10:36:46.978Z,76.00
2023-01-29T10:42:02.074Z,74.90
2023-01-29T10:47:12.156Z,71.70
2023-01-29T10:52:33.574Z,72.20
2023-01-29T10:57:47.264Z,72.20
2023-01-29T11:02:50.732Z,67.50
2023-01-29T11:08:13.368Z,59.40
2023-01-29T11:13:16.336Z,54.10
2023-01-29T11:18:18.075Z,52.60
2023-01-29T11:23:28.370Z,52.90
2023-01-29T11:28:50.614Z,56.60
2023-01-29T11:34:22.126Z,59.00
2023-01-29T11:39:25.573Z,57.70
2023-01-29T11:44:43.583Z,56.50
2023-01-29T11:49:48.763Z,56.40
2023-01-29T11:55:02.222Z,58.20
2023-01-29T12:00:20.455Z,58.60
2023-01-29T12:05:25.190Z,61.40
2023-01-29T12:10:38.164Z,60.90
2023-01-29T12:15:42.019Z,65.00
2023-01-29T12:20:48.403Z,67.30
2023-01-29T12:26:09.400Z,67.70
2023-01-29T12:31:29.081Z,68.30
2023-01-29T12:36:46.988Z,67.90
2023-01-29T12:42:04.294Z,68.80
2023-01-29T12:47:15.612Z,65.30
2023-01-29T12:52:30.163Z,63.20
2023-01-29T12:58:00.749Z,64.60
2023-01-29T13:03:08.081Z,66.60
2023-01-29T13:08:30.599Z,63.80
2023-01-29T13:13:54.584Z,57.00
2023-01-29T13:19:00.655Z,55.80
2023-01-29T13:24:12.985Z,53.40
2023-01-29T13:29:29.998Z,52.80
2023-01-29T13:34:35.267Z,53.40
2023-01-29T13:39:46.480Z,51.40
2023-01-29T13:44:54.106Z,52.80
2023-01-29T13:50:08.475Z,53.20
2023-01-29T13:55:22.320Z,55.70
2023-01-29T14:00:32.978Z,54.20
2023-01-29T14:05:37.603Z,56.40
2023-01-29T14:10:40.597Z,59.80
2023-01-29T14:15:42.255Z,64.00
2023-01-29T14:21:11.699Z,67.60
2023-01-29T14:26:45.237Z,69.80
2023-01-29T14:31:53.856Z,69.10
2023-01-29T14:36:58.659Z,66.50
2023-01-29T14:42:04.316Z,70.80
2023-01-29T14:47:06.133Z,74.70
2023-01-29T14:52:12.486Z,78.00
2023-01-29T14:57:17.674Z,79.90
2023-01-29T15:02:26.915Z,80.00
2023-01-29T15:07:32.469Z,80.00
2023-01-29T15:13:01.240Z,80.80
2023-01-29T15:18:12.018Z,81.30
2023-01-29T15:23:28.149Z,82.80
2023-01-29T15:28:32.131Z,82.60
2023-01-29T15:33:38.460Z,82.10
2023-01-29T15:38:40.122Z,82.30
2023-01-29T15:43:47.188Z,83.30
2023-01-29T15:48:50.064Z,83.60
2023-01-29T15:53:56.154Z,84.70
2023-01-29T15:59:00.853Z,84.90
2023-01-29T16:04:03.634Z,84.50
2023-01-29T16:09:07.174Z,85.00
2023-01-29T16:14:13.959Z,84.90
2023-01-29T16:19:28.199Z,85.10
2023-01-29T16:24:32.407Z,85.40
2023-01-29T16:29:35.355Z,85.60
2023-01-29T16:34:40.771Z,85.50
2023-01-29T16:39:47.605Z,85.80
2023-01-29T16:45:04.945Z,86.40
2023-01-29T16:50:40.503Z,87.80
2023-01-29T16:55:49.912Z,89.10
2023-01-29T17:01:11.181Z,90.00
2023-01-29T17:06:23.041Z,90.50
2023-01-29T17:11:37.585Z,90.80
2023-01-29T17:17:02.789Z,91.60
2023-01-29T17:22:07.676Z,91.60
2023-01-29T17:27:21.795Z,91.40
2023-01-29T17:32:25.109Z,91.60
2023-01-29T17:37:46.644Z,91.90
2023-01-29T17:42:48.352Z,92.00
2023-01-29T17:47:50.088Z,92.20
2023-01-29T17:52:52.643Z,92.60
2023-01-29T17:57:54.309Z,93.20
2023-01-29T18:02:55.978Z,93.40
2023-01-29T18:07:57.807Z,93.90
2023-01-29T18:12:59.471Z,94.00
2023-01-29T18:18:01.125Z,95.10
2023-01-29T18:23:06.104Z,95.10
2023-01-29T18:28:10.408Z,95.30
2023-01-29T18:33:12.082Z,95.90
2023-01-29T18:38:14.121Z,95.80
2023-01-29T18:43:16.230Z,96.00
2023-01-29T18:48:17.906Z,96.10
2023-01-29T18:53:19.544Z,95.80
2023-01-29T18:58:26.976Z,95.70
2023-01-29T19:03:42.050Z,95.70
2023-01-29T19:08:44.017Z,96.00
2023-01-29T19:13:47.899Z,96.00
2023-01-29T19:18:49.636Z,96.40
2023-01-29T19:23:51.501Z,96.30
2023-01-29T19:28:53.327Z,96.40
2023-01-29T19:33:55.055Z,96.10
2023-01-29T19:38:56.732Z,95.90
2023-01-29T19:43:58.377Z,95.70
2023-01-29T19:49:00.096Z,95.50
2023-01-29T19:54:02.462Z,95.40
2023-01-29T19:59:07.185Z,95.20
2023-01-29T20:04:08.931Z,95.70
2023-01-29T20:09:10.879Z,95.60
2023-01-29T20:14:12.846Z,95.50
2023-01-29T20:19:15.238Z,95.80
2023-01-29T20:24:17.037Z,96.40
2023-01-29T20:29:18.705Z,96.70
2023-01-29T20:34:20.370Z,97.00
2023-01-29T20:39:22.106Z,96.90
2023-01-29T20:44:24.635Z,96.70
2023-01-29T20:49:26.361Z,96.50
2023-01-29T20:54:29.896Z,96.30
2023-01-29T20:59:32.082Z,95.90
2023-01-29T21:04:33.736Z,95.80
2023-01-29T21:09:35.444Z,95.60
2023-01-29T21:14:37.265Z,95.70
2023-01-29T21:19:38.991Z,95.80
2023-01-29T21:24:40.718Z,95.60
2023-01-29T21:29:42.450Z,95.80
2023-01-29T21:34:44.261Z,96.20
2023-01-29T21:39:46.065Z,96.30
2023-01-29T21:44:47.759Z,96.20
2023-01-29T21:49:49.490Z,95.90
2023-01-29T21:54:51.367Z,96.10
2023-01-29T21:59:57.686Z,96.20
2023-01-29T22:05:17.480Z,96.20
2023-01-29T22:10:21.027Z,96.50
2023-01-29T22:15:24.029Z,96.40
2023-01-29T22:20:30.139Z,96.20
2023-01-29T22:25:32.293Z,96.50
2023-01-29T22:30:35.063Z,96.40
2023-01-29T22:35:37.421Z,96.40
2023-01-29T22:40:39.213Z,96.20
2023-01-29T22:45:40.987Z,96.50
2023-01-29T22:50:42.703Z,96.30
2023-01-29T22:55:44.412Z,96.40
2023-01-29T23:00:50.934Z,96.20
2023-01-29T23:05:52.599Z,96.00
2023-01-29T23:10:54.307Z,96.30
2023-01-29T23:15:59.641Z,96.40
2023-01-29T23:21:01.349Z,96.30
2023-01-29T23:26:24.365Z,96.40
2023-01-29T23:31:26.411Z,96.40
2023-01-29T23:36:28.402Z,96.80
2023-01-29T23:41:30.090Z,96.50
2023-01-29T23:46:31.869Z,96.30
2023-01-29T23:51:33.559Z,96.80
2023-01-29T23:56:35.267Z,96.90
